createdAt,value
2023-04-20T00:01:38.976Z,14.22
2023-04-20T00:04:42.751Z,14.20
2023-04-20T00:07:48.850Z,14.27
2023-04-20T00:10:52.552Z,14.13
2023-04-20T00:13:56.145Z,13.97
2023-04-20T00:16:59.844Z,13.71
2023-04-20T00:20:04.072Z,13.98
2023-04-20T00:23:09.208Z,13.98
2023-04-20T00:26:12.740Z,13.46
2023-04-20T00:29:18.280Z,13.74
2023-04-20T00:32:21.971Z,13.80
2023-04-20T00:35:25.798Z,13.45
2023-04-20T00:38:30.991Z,13.56
2023-04-20T00:41:36.275Z,13.45
2023-04-20T00:44:39.902Z,13.52
2023-04-20T00:47:43.883Z,13.35
2023-04-20T00:50:48.199Z,13.72
2023-04-20T00:53:53.264Z,13.49
2023-04-20T00:56:58.095Z,13.48
2023-04-20T01:00:02.023Z,13.52
2023-04-20T01:03:06.388Z,13.36
2023-04-20T01:06:11.188Z,13.47
2023-04-20T01:09:16.435Z,13.26
2023-04-20T01:12:21.348Z,13.39
2023-04-20T01:15:25.010Z,13.48
2023-04-20T01:18:28.510Z,13.23
2023-04-20T01:21:33.697Z,13.48
2023-04-20T01:24:38.580Z,13.46
2023-04-20T01:27:42.233Z,13.46
2023-04-20T01:30:45.778Z,13.13
2023-04-20T01:33:49.402Z,13.35
2023-04-20T01:36:53.038Z,13.40
2023-04-20T01:39:58.472Z,13.31
2023-04-20T01:43:01.984Z,13.44
2023-04-20T01:46:06.236Z,13.36
2023-04-20T01:49:10.628Z,13.17
2023-04-20T01:52:14.208Z,13.37
2023-04-20T01:55:20.235Z,13.12
2023-04-20T01:58:23.941Z,13.24
2023-04-20T02:01:27.614Z,13.24
2023-04-20T02:04:31.381Z,13.27
2023-04-20T02:07:34.941Z,13.38
2023-04-20T02:10:40.027Z,13.32
2023-04-20T02:13:45.727Z,13.13
2023-04-20T02:16:49.397Z,13.05
2023-04-20T02:19:52.958Z,13.11
2023-04-20T02:22:56.598Z,13.20
2023-04-20T02:26:01.561Z,13.03
2023-04-20T02:29:05.134Z,13.14
2023-04-20T02:32:10.982Z,13.23
2023-04-20T02:35:14.633Z,13.24
2023-04-20T02:38:19.420Z,13.23
2023-04-20T02:41:24.938Z,13.20
2023-04-20T02:44:28.547Z,13.09
2023-04-20T02:47:32.333Z,13.15
2023-04-20T02:50:38.133Z,13.28
2023-04-20T02:53:57.426Z,13.19
2023-04-20T02:57:07.288Z,13.18
2023-04-20T03:00:13.705Z,13.22
2023-04-20T03:03:35.803Z,13.25
2023-04-20T03:06:40.875Z,13.24
2023-04-20T03:09:47.485Z,13.10
2023-04-20T03:13:21.903Z,13.12
2023-04-20T03:16:37.998Z,13.03
2023-04-20T03:19:42.114Z,13.14
2023-04-20T03:22:45.823Z,13.28
2023-04-20T03:25:49.686Z,13.10
2023-04-20T03:29:17.831Z,13.01
2023-04-20T03:32:22.548Z,12.87
2023-04-20T03:35:26.225Z,12.86
2023-04-20T03:38:30.109Z,12.55
2023-04-20T03:41:33.634Z,12.72
2023-04-20T03:44:38.585Z,13.00
2023-04-20T03:47:42.695Z,13.06
2023-04-20T03:50:46.329Z,12.98
2023-04-20T03:53:49.974Z,12.79
2023-04-20T03:56:53.747Z,13.06
2023-04-20T03:59:59.862Z,12.90
2023-04-20T04:03:10.565Z,13.09
2023-04-20T04:06:14.385Z,12.94
2023-04-20T04:09:18.729Z,13.02
2023-04-20T04:12:22.578Z,12.94
2023-04-20T04:15:28.809Z,12.86
2023-04-20T04:18:44.821Z,13.13
2023-04-20T04:21:48.534Z,13.27
2023-04-20T04:24:54.565Z,13.22
2023-04-20T04:27:58.233Z,13.21
2023-04-20T04:31:06.613Z,13.37
2023-04-20T04:34:12.565Z,13.64
2023-04-20T04:37:28.346Z,13.63
2023-04-20T04:40:33.874Z,13.80
2023-04-20T04:43:39.708Z,13.95
2023-04-20T04:46:57.964Z,13.91
2023-04-20T04:50:06.074Z,13.71
2023-04-20T04:53:09.920Z,13.83
2023-04-20T04:56:14.588Z,13.73
2023-04-20T04:59:18.411Z,13.71
2023-04-20T05:02:23.790Z,13.85
2023-04-20T05:05:27.526Z,14.05
2023-04-20T05:08:31.239Z,14.06
2023-04-20T05:11:34.949Z,13.94
2023-04-20T05:14:38.958Z,14.13
2023-04-20T05:17:44.440Z,14.26
2023-04-20T05:20:48.137Z,14.26
2023-04-20T05:23:51.858Z,14.22
2023-04-20T05:26:55.604Z,14.50
2023-04-20T05:30:09.496Z,14.74
2023-04-20T05:33:24.600Z,14.75
2023-04-20T05:36:29.734Z,14.85
2023-04-20T05:39:33.449Z,14.56
2023-04-20T05:42:37.023Z,14.69
2023-04-20T05:45:40.808Z,14.68
2023-04-20T05:48:46.256Z,15.02
2023-04-20T05:51:50.002Z,15.15
2023-04-20T05:54:54.492Z,15.13
2023-04-20T05:57:58.616Z,14.90
2023-04-20T06:01:02.833Z,15.16
2023-04-20T06:04:08.219Z,15.23
2023-04-20T06:07:11.960Z,15.20
2023-04-20T06:10:15.868Z,15.53
2023-04-20T06:13:19.584Z,15.64
2023-04-20T06:16:23.288Z,16.14
2023-04-20T06:19:28.589Z,16.33
2023-04-20T06:22:32.325Z,16.31
2023-04-20T06:25:37.829Z,16.60
2023-04-20T06:28:41.877Z,16.62
2023-04-20T06:31:45.743Z,16.48
2023-04-20T06:34:52.644Z,16.63
2023-04-20T06:37:57.881Z,16.67
2023-04-20T06:41:02.952Z,16.99
2023-04-20T06:44:06.691Z,17.29
2023-04-20T06:47:10.437Z,17.39
2023-04-20T06:50:15.722Z,17.81
2023-04-20T06:53:19.425Z,18.17
2023-04-20T06:56:23.363Z,18.06
2023-04-20T06:59:27.021Z,18.66
2023-04-20T07:02:30.906Z,18.61
2023-04-20T07:05:37.985Z,18.71
2023-04-20T07:08:41.813Z,18.12
2023-04-20T07:11:45.579Z,18.30
2023-04-20T07:14:49.288Z,18.50
2023-04-20T07:17:52.952Z,18.60
2023-04-20T07:20:58.114Z,18.57
2023-04-20T07:24:01.793Z,18.83
2023-04-20T07:27:05.970Z,18.62
2023-04-20T07:30:11.398Z,18.79
2023-04-20T07:33:15.244Z,19.45
2023-04-20T07:36:21.925Z,19.21
2023-04-20T07:39:28.794Z,18.84
2023-04-20T07:42:34.252Z,19.27
2023-04-20T07:45:41.755Z,19.09
2023-04-20T07:48:45.610Z,18.95
2023-04-20T07:51:50.739Z,19.35
2023-04-20T07:54:54.893Z,19.40
2023-04-20T07:57:58.866Z,19.55
2023-04-20T08:01:02.507Z,19.26
2023-04-20T08:04:06.901Z,19.21
2023-04-20T08:07:12.595Z,19.09
2023-04-20T08:10:16.439Z,19.16
2023-04-20T08:13:20.280Z,19.51
2023-04-20T08:16:24.138Z,19.27
2023-04-20T08:19:27.858Z,19.83
2023-04-20T08:22:33.788Z,19.75
2023-04-20T08:25:40.575Z,19.72
2023-04-20T08:28:45.396Z,20.14
2023-04-20T08:31:51.325Z,20.16
2023-04-20T08:34:57.131Z,20.03
2023-04-20T08:38:02.592Z,20.71
2023-04-20T08:41:06.655Z,21.21
2023-04-20T08:44:10.324Z,21.13
2023-04-20T08:47:16.570Z,20.88
2023-04-20T08:50:21.100Z,20.74
2023-04-20T08:53:26.354Z,21.34
2023-04-20T08:56:37.251Z,21.37
2023-04-20T08:59:41.339Z,21.60
2023-04-20T09:02:56.238Z,21.47
2023-04-20T09:06:00.137Z,21.56
2023-04-20T09:09:11.904Z,21.64
2023-04-20T09:12:15.539Z,21.80
2023-04-20T09:15:29.325Z,21.74
2023-04-20T09:18:33.086Z,21.89
2023-04-20T09:21:36.905Z,21.74
2023-04-20T09:24:43.726Z,21.67
2023-04-20T09:27:57.249Z,22.00
2023-04-20T09:31:01.528Z,21.37
2023-04-20T09:34:05.936Z,22.17
2023-04-20T09:37:11.809Z,21.68
2023-04-20T09:40:18.012Z,22.52
2023-04-20T09:43:25.802Z,22.26
2023-04-20T09:46:32.788Z,21.52
2023-04-20T09:49:36.883Z,21.63
2023-04-20T09:52:42.311Z,22.07
2023-04-20T09:55:49.801Z,22.04
2023-04-20T09:58:54.219Z,21.52
2023-04-20T10:01:57.929Z,21.95
2023-04-20T10:05:02.272Z,22.34
2023-04-20T10:08:06.494Z,22.19
2023-04-20T10:11:11.990Z,22.17
2023-04-20T10:14:20.505Z,22.79
2023-04-20T10:17:31.635Z,23.24
2023-04-20T10:20:35.489Z,23.27
2023-04-20T10:23:49.705Z,24.08
2023-04-20T10:26:54.845Z,24.25
2023-04-20T10:29:58.585Z,23.68
2023-04-20T10:33:06.759Z,23.58
2023-04-20T10:36:10.499Z,23.82
2023-04-20T10:39:19.776Z,23.68
2023-04-20T10:42:26.678Z,23.95
2023-04-20T10:45:40.471Z,23.12
2023-04-20T10:48:52.792Z,22.61
2023-04-20T10:51:57.515Z,22.35
2023-04-20T10:55:01.361Z,22.12
2023-04-20T10:58:06.724Z,22.00
2023-04-20T11:01:10.518Z,21.50
2023-04-20T11:04:18.308Z,21.15
2023-04-20T11:07:22.284Z,20.17
2023-04-20T11:10:38.255Z,19.71
2023-04-20T11:13:43.584Z,19.19
2023-04-20T11:16:54.522Z,19.25
2023-04-20T11:20:09.466Z,18.60
2023-04-20T11:23:13.353Z,18.14
2023-04-20T11:26:17.407Z,18.51
2023-04-20T11:29:36.147Z,18.18
2023-04-20T11:32:40.142Z,18.27
2023-04-20T11:35:44.603Z,18.46
2023-04-20T11:38:48.321Z,18.23
2023-04-20T11:41:52.542Z,18.23
2023-04-20T11:44:57.832Z,18.47
2023-04-20T11:48:01.622Z,18.68
2023-04-20T11:51:05.412Z,18.89
2023-04-20T11:54:09.184Z,20.13
2023-04-20T11:57:13.330Z,20.29
2023-04-20T12:00:19.793Z,20.97
2023-04-20T12:03:24.579Z,20.95
2023-04-20T12:06:29.001Z,21.44
2023-04-20T12:09:36.340Z,21.86
2023-04-20T12:12:42.303Z,21.87
2023-04-20T12:15:47.539Z,21.51
2023-04-20T12:18:51.385Z,21.79
2023-04-20T12:21:55.233Z,22.19
2023-04-20T12:24:58.957Z,22.35
2023-04-20T12:28:07.020Z,22.48
2023-04-20T12:31:12.411Z,21.64
2023-04-20T12:34:16.357Z,21.51
2023-04-20T12:37:20.907Z,21.83
2023-04-20T12:40:24.950Z,21.66
2023-04-20T12:43:28.899Z,21.17
2023-04-20T12:46:34.134Z,21.03
2023-04-20T12:49:37.901Z,21.88
2023-04-20T12:52:41.835Z,22.40
2023-04-20T12:55:45.462Z,22.50
2023-04-20T12:58:49.168Z,22.49
2023-04-20T13:01:54.467Z,22.41
2023-04-20T13:04:58.226Z,23.05
2023-04-20T13:08:01.973Z,22.65
2023-04-20T13:11:06.700Z,22.65
2023-04-20T13:14:10.313Z,22.80
2023-04-20T13:17:15.526Z,22.77
2023-04-20T13:20:19.232Z,22.88
2023-04-20T13:23:23.694Z,22.98
2023-04-20T13:26:27.739Z,23.19
2023-04-20T13:29:31.808Z,23.15
2023-04-20T13:32:38.843Z,23.19
2023-04-20T13:35:43.473Z,22.87
2023-04-20T13:38:47.570Z,22.89
2023-04-20T13:41:51.318Z,22.75
2023-04-20T13:44:55.047Z,22.51
2023-04-20T13:48:00.254Z,22.76
2023-04-20T13:51:04.051Z,22.76
2023-04-20T13:54:08.275Z,22.82
2023-04-20T13:57:12.046Z,22.96
2023-04-20T14:00:16.360Z,22.95
2023-04-20T14:03:21.762Z,23.25
2023-04-20T14:06:25.758Z,23.17
2023-04-20T14:09:29.895Z,23.06
2023-04-20T14:12:34.382Z,23.33
2023-04-20T14:15:38.303Z,23.24
2023-04-20T14:18:43.859Z,22.77
2023-04-20T14:21:47.879Z,23.34
2023-04-20T14:24:51.762Z,23.44
2023-04-20T14:27:55.604Z,23.37
2023-04-20T14:31:01.103Z,23.49
2023-04-20T14:34:06.469Z,23.37
2023-04-20T14:37:10.404Z,23.15
2023-04-20T14:40:14.612Z,23.44
2023-04-20T14:43:18.480Z,23.39
2023-04-20T14:46:22.222Z,23.28
2023-04-20T14:49:27.592Z,23.14
2023-04-20T14:52:31.384Z,22.96
2023-04-20T14:55:35.221Z,23.00
2023-04-20T14:58:40.493Z,22.81
2023-04-20T15:01:55.154Z,22.82
2023-04-20T15:05:10.243Z,22.86
2023-04-20T15:08:14.948Z,22.43
2023-04-20T15:11:18.802Z,22.10
2023-04-20T15:14:22.554Z,22.17
2023-04-20T15:17:26.606Z,22.09
2023-04-20T15:20:31.891Z,21.88
2023-04-20T15:23:35.741Z,21.91
2023-04-20T15:26:39.654Z,21.43
2023-04-20T15:29:43.502Z,21.12
2023-04-20T15:32:47.454Z,20.95
2023-04-20T15:35:52.752Z,20.48
2023-04-20T15:38:57.992Z,20.16
2023-04-20T15:42:03.223Z,19.81
2023-04-20T15:45:08.674Z,19.87
2023-04-20T15:48:12.544Z,19.91
2023-04-20T15:51:19.380Z,19.52
2023-04-20T15:54:23.948Z,19.37
2023-04-20T15:57:27.862Z,19.34
2023-04-20T16:00:31.753Z,18.66
2023-04-20T16:03:35.802Z,18.66
2023-04-20T16:06:42.031Z,18.72
2023-04-20T16:09:45.981Z,18.78
2023-04-20T16:12:49.814Z,18.73
2023-04-20T16:15:53.927Z,18.73
2023-04-20T16:18:57.840Z,18.75
2023-04-20T16:22:03.002Z,18.61
2023-04-20T16:25:07.859Z,18.26
2023-04-20T16:28:11.649Z,18.02
2023-04-20T16:31:16.045Z,18.30
2023-04-20T16:34:20.537Z,18.39
2023-04-20T16:37:26.106Z,18.34
2023-04-20T16:40:30.023Z,17.98
2023-04-20T16:43:33.843Z,18.17
2023-04-20T16:46:37.707Z,18.14
2023-04-20T16:49:41.566Z,18.25
2023-04-20T16:52:46.755Z,18.20
2023-04-20T16:55:50.694Z,18.27
2023-04-20T16:58:54.555Z,18.15
2023-04-20T17:01:58.415Z,18.08
2023-04-20T17:05:02.378Z,18.04
2023-04-20T17:08:08.013Z,18.04
2023-04-20T17:11:11.832Z,17.88
2023-04-20T17:14:16.327Z,17.71
2023-04-20T17:17:20.186Z,17.76
2023-04-20T17:20:23.977Z,17.69
2023-04-20T17:23:29.907Z,17.55
2023-04-20T17:26:33.721Z,17.56
2023-04-20T17:29:38.727Z,17.47
2023-04-20T17:32:42.807Z,17.46
2023-04-20T17:35:46.735Z,17.63
2023-04-20T17:38:51.909Z,17.62
2023-04-20T17:41:55.692Z,17.42
2023-04-20T17:44:59.333Z,17.44
2023-04-20T17:48:03.154Z,17.43
2023-04-20T17:51:06.875Z,17.49
2023-04-20T17:54:12.094Z,17.58
2023-04-20T17:57:15.791Z,17.62
2023-04-20T18:00:20.716Z,17.49
2023-04-20T18:03:24.466Z,17.33
2023-04-20T18:06:28.373Z,17.23
2023-04-20T18:09:33.498Z,17.33
2023-04-20T18:12:37.246Z,17.55
2023-04-20T18:15:41.331Z,17.47
2023-04-20T18:18:45.110Z,17.38
2023-04-20T18:21:48.932Z,17.22
2023-04-20T18:24:54.492Z,17.07
2023-04-20T18:27:58.225Z,17.10
2023-04-20T18:31:02.711Z,17.18
2023-04-20T18:34:07.829Z,17.06
2023-04-20T18:37:14.294Z,16.83
2023-04-20T18:40:19.516Z,16.91
2023-04-20T18:43:23.302Z,17.05
2023-04-20T18:46:27.221Z,17.12
2023-04-20T18:49:32.190Z,17.13
2023-04-20T18:52:36.142Z,16.82
2023-04-20T18:55:41.596Z,17.02
2023-04-20T18:58:45.483Z,17.04
2023-04-20T19:01:50.147Z,17.07
2023-04-20T19:04:54.122Z,17.06
2023-04-20T19:07:57.915Z,17.14
2023-04-20T19:11:03.103Z,17.08
2023-04-20T19:14:06.933Z,17.02
2023-04-20T19:17:10.620Z,16.92
2023-04-20T19:20:14.645Z,17.06
2023-04-20T19:23:18.304Z,17.00
2023-04-20T19:26:24.371Z,16.97
2023-04-20T19:29:28.211Z,17.02
2023-04-20T19:32:31.983Z,17.15
2023-04-20T19:35:35.716Z,17.03
2023-04-20T19:38:39.453Z,16.97
2023-04-20T19:41:44.893Z,16.96
2023-04-20T19:44:48.854Z,16.91
2023-04-20T19:47:53.188Z,16.92
2023-04-20T19:50:58.040Z,16.81
2023-04-20T19:54:03.764Z,16.86
2023-04-20T19:57:09.093Z,16.74
2023-04-20T20:00:14.276Z,16.70
2023-04-20T20:03:18.592Z,16.75
2023-04-20T20:06:23.802Z,16.71
2023-04-20T20:09:27.778Z,16.62
2023-04-20T20:12:32.982Z,16.75
2023-04-20T20:15:37.678Z,16.63
2023-04-20T20:18:41.955Z,16.68
2023-04-20T20:21:45.591Z,16.48
2023-04-20T20:24:51.388Z,16.45
2023-04-20T20:27:56.680Z,16.50
2023-04-20T20:31:00.774Z,16.35
2023-04-20T20:34:04.525Z,16.65
2023-04-20T20:37:10.576Z,16.60
2023-04-20T20:40:15.509Z,16.65
2023-04-20T20:43:20.682Z,16.49
2023-04-20T20:46:24.353Z,16.29
2023-04-20T20:49:28.104Z,16.54
2023-04-20T20:52:31.807Z,16.59
2023-04-20T20:55:35.540Z,16.74
2023-04-20T20:58:40.697Z,16.79
2023-04-20T21:01:44.431Z,16.93
2023-04-20T21:04:48.178Z,16.82
2023-04-20T21:07:51.890Z,16.71
2023-04-20T21:10:55.662Z,16.76
2023-04-20T21:14:02.972Z,16.83
2023-04-20T21:17:06.823Z,16.83
2023-04-20T21:20:11.811Z,16.92
2023-04-20T21:23:16.133Z,16.92
2023-04-20T21:26:19.792Z,16.94
2023-04-20T21:29:24.893Z,16.96
2023-04-20T21:32:28.651Z,16.99
2023-04-20T21:35:32.451Z,16.97
2023-04-20T21:38:36.483Z,17.00
2023-04-20T21:41:40.767Z,16.97
2023-04-20T21:44:45.889Z,16.68
2023-04-20T21:47:49.590Z,16.77
2023-04-20T21:50:53.308Z,16.61
2023-04-20T21:53:56.971Z,16.43
2023-04-20T21:57:00.655Z,16.06
2023-04-20T22:00:06.519Z,16.08
2023-04-20T22:03:18.348Z,15.99
2023-04-20T22:06:22.315Z,15.79
2023-04-20T22:09:26.177Z,15.91
2023-04-20T22:12:39.329Z,16.06
2023-04-20T22:15:47.388Z,15.98
2023-04-20T22:18:51.891Z,16.07
2023-04-20T22:21:55.571Z,16.24
2023-04-20T22:24:59.268Z,16.15
2023-04-20T22:28:02.979Z,16.13
2023-04-20T22:31:08.258Z,16.22
2023-04-20T22:34:11.976Z,16.28
2023-04-20T22:37:16.843Z,16.32
2023-04-20T22:40:20.512Z,16.16
2023-04-20T22:43:24.506Z,16.25
2023-04-20T22:46:29.742Z,16.09
2023-04-20T22:49:33.576Z,15.84
2023-04-20T22:52:38.765Z,15.85
2023-04-20T22:55:42.422Z,15.71
2023-04-20T22:58:46.049Z,15.73
2023-04-20T23:01:51.126Z,15.69
2023-04-20T23:04:54.908Z,15.58
2023-04-20T23:08:00.728Z,15.55
2023-04-20T23:11:04.946Z,15.63
2023-04-20T23:14:09.235Z,15.54
2023-04-20T23:17:14.285Z,15.36
2023-04-20T23:20:17.965Z,15.30
2023-04-20T23:23:21.668Z,15.11
2023-04-20T23:26:25.755Z,15.26
2023-04-20T23:29:30.206Z,15.43
2023-04-20T23:32:35.849Z,15.48
2023-04-20T23:35:39.500Z,15.46
2023-04-20T23:38:43.364Z,15.62
2023-04-20T23:41:47.197Z,15.74
2023-04-20T23:44:50.739Z,15.52
2023-04-20T23:47:56.066Z,15.58
2023-04-20T23:50:59.805Z,15.46
2023-04-20T23:54:03.694Z,15.55
2023-04-20T23:57:07.345Z,15.62
